createdAt,value
2023-05-14T00:00:05.137Z,9.53
2023-05-14T00:02:31.555Z,10.43
2023-05-14T00:04:57.922Z,11.23
2023-05-14T00:07:30.601Z,10.02
2023-05-14T00:09:58.329Z,12.05
2023-05-14T00:12:26.328Z,12.23
2023-05-14T00:14:53.722Z,11.95
2023-05-14T00:17:20.163Z,12.88
2023-05-14T00:19:46.549Z,15.00
2023-05-14T00:22:12.974Z,10.38
2023-05-14T00:24:39.336Z,14.37
2023-05-14T00:27:06.641Z,8.55
2023-05-14T00:29:33.065Z,10.82
2023-05-14T00:31:59.429Z,14.15
2023-05-14T00:34:25.825Z,12.30
2023-05-14T00:36:52.309Z,9.73
2023-05-14T00:39:18.630Z,11.30
2023-05-14T00:41:44.976Z,12.68
2023-05-14T00:44:11.426Z,9.60
2023-05-14T00:46:37.915Z,9.07
2023-05-14T00:49:04.889Z,10.27
2023-05-14T00:51:31.553Z,13.55
2023-05-14T00:53:58.060Z,11.32
2023-05-14T00:56:24.875Z,9.45
2023-05-14T00:58:51.240Z,14.30
2023-05-14T01:01:18.139Z,11.27
2023-05-14T01:03:44.971Z,9.32
2023-05-14T01:08:56.784Z,15.48
2023-05-14T01:11:29.589Z,7.93
2023-05-14T01:14:29.004Z,14.10
2023-05-14T01:16:58.895Z,12.15
2023-05-14T01:19:41.028Z,13.32
2023-05-14T01:22:07.576Z,14.02
2023-05-14T01:24:34.353Z,18.20
2023-05-14T01:27:24.965Z,9.73
2023-05-14T01:30:17.857Z,14.20
2023-05-14T01:32:50.985Z,10.73
2023-05-14T01:35:18.200Z,10.13
2023-05-14T01:37:45.792Z,16.23
2023-05-14T01:40:12.822Z,12.60
2023-05-14T01:42:39.225Z,14.85
2023-05-14T01:45:06.144Z,12.00
2023-05-14T01:47:32.590Z,9.68
2023-05-14T01:49:58.949Z,8.00
2023-05-14T01:52:25.384Z,8.90
2023-05-14T01:54:51.789Z,12.10
2023-05-14T01:57:18.246Z,11.63
2023-05-14T01:59:44.685Z,9.40
2023-05-14T02:02:11.094Z,11.45
2023-05-14T02:04:37.501Z,11.47
2023-05-14T02:07:04.045Z,10.38
2023-05-14T02:09:30.735Z,11.80
2023-05-14T02:11:57.101Z,10.80
2023-05-14T02:14:23.500Z,16.38
2023-05-14T02:16:51.320Z,12.70
2023-05-14T02:19:20.115Z,13.30
2023-05-14T02:21:46.934Z,14.05
2023-05-14T02:24:13.395Z,13.55
2023-05-14T02:26:39.827Z,12.23
2023-05-14T02:29:06.212Z,10.50
2023-05-14T02:31:32.577Z,12.52
2023-05-14T02:33:59.036Z,14.20
2023-05-14T02:36:25.583Z,13.60
2023-05-14T02:38:51.972Z,8.90
2023-05-14T02:41:18.339Z,23.23
2023-05-14T02:43:44.749Z,13.52
2023-05-14T02:46:11.151Z,9.45
2023-05-14T02:48:37.504Z,9.27
2023-05-14T02:51:03.905Z,11.70
2023-05-14T02:53:30.310Z,11.00
2023-05-14T02:55:56.724Z,16.27
2023-05-14T02:58:26.606Z,10.02
2023-05-14T03:00:55.565Z,12.30
2023-05-14T03:03:22.432Z,13.25
2023-05-14T03:05:49.389Z,13.23
2023-05-14T03:08:15.881Z,11.00
2023-05-14T03:10:42.274Z,11.68
2023-05-14T03:13:08.685Z,13.18
2023-05-14T03:15:35.066Z,10.27
2023-05-14T03:18:01.405Z,15.97
2023-05-14T03:20:28.057Z,11.68
2023-05-14T03:22:56.034Z,9.20
2023-05-14T03:25:22.494Z,13.98
2023-05-14T03:27:48.838Z,14.07
2023-05-14T03:30:15.244Z,13.20
2023-05-14T03:32:42.794Z,14.32
2023-05-14T03:35:09.328Z,11.88
2023-05-14T03:37:35.650Z,9.77
2023-05-14T03:40:02.052Z,9.65
2023-05-14T03:42:28.409Z,15.33
2023-05-14T03:44:54.760Z,10.77
2023-05-14T03:47:21.076Z,14.10
2023-05-14T03:49:47.492Z,13.63
2023-05-14T03:52:13.908Z,16.35
2023-05-14T03:54:41.195Z,12.87
2023-05-14T03:57:07.506Z,12.85
2023-05-14T03:59:33.891Z,12.40
2023-05-14T04:02:00.272Z,17.83
2023-05-14T04:04:26.696Z,17.48
2023-05-14T04:06:53.052Z,13.13
2023-05-14T04:09:19.359Z,12.80
2023-05-14T04:11:46.116Z,12.27
2023-05-14T04:14:12.862Z,9.05
2023-05-14T04:16:39.335Z,13.30
2023-05-14T04:19:06.012Z,11.77
2023-05-14T04:21:32.541Z,13.20
2023-05-14T04:23:58.936Z,11.75
2023-05-14T04:26:25.361Z,12.13
2023-05-14T04:28:52.023Z,11.63
2023-05-14T04:31:18.527Z,16.67
2023-05-14T04:33:44.946Z,13.50
2023-05-14T04:36:11.297Z,11.80
2023-05-14T04:38:37.633Z,11.98
2023-05-14T04:41:04.160Z,9.13
2023-05-14T04:43:30.482Z,8.70
2023-05-14T04:45:56.932Z,7.05
2023-05-14T04:48:23.477Z,16.90
2023-05-14T04:50:49.872Z,8.18
2023-05-14T04:53:16.233Z,9.55
2023-05-14T04:55:42.563Z,9.37
2023-05-14T04:58:08.958Z,12.30
2023-05-14T05:00:35.303Z,10.13
2023-05-14T05:03:01.784Z,12.43
2023-05-14T05:05:28.226Z,7.18
2023-05-14T05:07:54.887Z,7.77
2023-05-14T05:10:21.549Z,11.48
2023-05-14T05:12:48.282Z,12.13
2023-05-14T05:15:14.636Z,7.03
2023-05-14T05:17:41.099Z,6.65
2023-05-14T05:20:09.702Z,9.23
2023-05-14T05:22:36.731Z,8.43
2023-05-14T05:25:06.213Z,6.90
2023-05-14T05:27:33.396Z,7.15
2023-05-14T05:30:01.738Z,7.63
2023-05-14T05:32:28.265Z,5.80
2023-05-14T05:34:54.766Z,7.38
2023-05-14T05:37:21.202Z,10.13
2023-05-14T05:39:48.239Z,11.32
2023-05-14T05:42:14.689Z,9.82
2023-05-14T05:44:41.267Z,9.60
2023-05-14T05:47:07.724Z,7.57
2023-05-14T05:49:34.149Z,9.00
2023-05-14T05:52:00.561Z,9.77
2023-05-14T05:54:27.170Z,6.13
2023-05-14T05:56:53.546Z,7.53
2023-05-14T05:59:19.921Z,8.52
2023-05-14T06:01:46.343Z,9.88
2023-05-14T06:04:12.688Z,9.15
2023-05-14T06:06:39.072Z,7.18
2023-05-14T06:09:06.866Z,9.73
2023-05-14T06:11:33.393Z,11.43
2023-05-14T06:13:59.828Z,6.30
2023-05-14T06:16:26.373Z,9.15
2023-05-14T06:18:54.504Z,8.38
2023-05-14T06:21:21.187Z,8.77
2023-05-14T06:23:47.557Z,10.05
2023-05-14T06:26:13.938Z,6.95
2023-05-14T06:28:40.310Z,8.57
2023-05-14T06:31:06.738Z,7.22
2023-05-14T06:33:33.137Z,10.83
2023-05-14T06:36:05.730Z,6.38
2023-05-14T06:38:32.370Z,8.35
2023-05-14T06:40:58.763Z,5.88
2023-05-14T06:43:25.518Z,6.65
2023-05-14T06:45:52.348Z,6.07
2023-05-14T06:48:19.640Z,6.05
2023-05-14T06:50:47.408Z,5.22
2023-05-14T06:53:14.308Z,4.38
2023-05-14T06:55:41.085Z,4.90
2023-05-14T06:58:08.161Z,7.93
2023-05-14T07:00:34.706Z,11.10
2023-05-14T07:03:01.172Z,6.03
2023-05-14T07:05:27.634Z,5.32
2023-05-14T07:07:53.977Z,7.68
2023-05-14T07:10:20.661Z,6.57
2023-05-14T07:12:47.051Z,5.50
2023-05-14T07:15:13.458Z,9.07
2023-05-14T07:17:39.851Z,12.00
2023-05-14T07:20:07.182Z,7.40
2023-05-14T07:22:33.653Z,6.23
2023-05-14T07:25:00.030Z,4.45
2023-05-14T07:27:26.506Z,5.72
2023-05-14T07:29:52.832Z,7.70
2023-05-14T07:32:19.178Z,5.43
2023-05-14T07:34:46.268Z,6.30
2023-05-14T07:37:12.726Z,5.95
2023-05-14T07:39:39.111Z,5.10
2023-05-14T07:42:05.817Z,6.15
2023-05-14T07:44:32.195Z,3.88
2023-05-14T07:46:58.614Z,4.50
2023-05-14T07:49:25.117Z,7.50
2023-05-14T07:51:51.486Z,4.78
2023-05-14T07:54:17.835Z,4.68
2023-05-14T07:56:44.482Z,6.93
2023-05-14T07:59:10.849Z,9.00
2023-05-14T08:01:39.353Z,5.63
2023-05-14T08:04:06.090Z,7.05
2023-05-14T08:06:32.554Z,5.63
2023-05-14T08:08:58.892Z,4.80
2023-05-14T08:11:26.046Z,6.30
2023-05-14T08:13:52.438Z,5.60
2023-05-14T08:16:18.861Z,8.07
2023-05-14T08:18:45.322Z,7.70
2023-05-14T08:21:11.668Z,4.90
2023-05-14T08:23:38.056Z,6.13
2023-05-14T08:26:04.554Z,5.95
2023-05-14T08:28:30.944Z,6.22
2023-05-14T08:30:57.306Z,5.90
2023-05-14T08:33:23.740Z,7.88
2023-05-14T08:35:52.810Z,3.90
2023-05-14T08:38:19.134Z,4.22
2023-05-14T08:40:56.019Z,5.70
2023-05-14T08:43:26.552Z,5.45
2023-05-14T08:46:00.590Z,4.72
2023-05-14T08:48:31.898Z,3.63
2023-05-14T08:50:59.650Z,4.32
2023-05-14T08:53:26.333Z,4.43
2023-05-14T08:55:53.879Z,4.68
2023-05-14T08:58:20.664Z,7.13
2023-05-14T09:00:47.580Z,3.80
2023-05-14T09:03:14.889Z,4.65
2023-05-14T09:05:41.537Z,6.20
2023-05-14T09:08:07.944Z,8.20
2023-05-14T09:10:34.285Z,4.63
2023-05-14T09:13:00.817Z,6.27
2023-05-14T09:15:29.050Z,5.55
2023-05-14T09:17:56.789Z,6.22
2023-05-14T09:20:25.165Z,5.22
2023-05-14T09:22:54.844Z,3.15
2023-05-14T09:25:26.808Z,4.00
2023-05-14T09:27:56.150Z,7.18
2023-05-14T09:30:25.363Z,6.80
2023-05-14T09:32:54.504Z,6.70
2023-05-14T09:35:23.278Z,6.15
2023-05-14T09:37:54.295Z,6.73
2023-05-14T09:40:23.293Z,5.68
2023-05-14T09:42:50.607Z,7.40
2023-05-14T09:45:17.477Z,5.03
2023-05-14T09:47:44.993Z,5.00
2023-05-14T09:50:12.255Z,8.37
2023-05-14T09:52:38.939Z,5.68
2023-05-14T09:55:06.288Z,7.60
2023-05-14T09:57:33.482Z,2.95
2023-05-14T09:59:59.969Z,8.70
2023-05-14T10:02:37.427Z,6.27
2023-05-14T10:05:07.696Z,8.40
2023-05-14T10:07:41.518Z,6.50
2023-05-14T10:10:11.533Z,7.70
2023-05-14T10:12:40.425Z,10.05
2023-05-14T10:15:19.517Z,8.57
2023-05-14T10:17:49.627Z,3.92
2023-05-14T10:20:17.442Z,7.03
2023-05-14T10:22:43.871Z,7.13
2023-05-14T10:25:11.164Z,5.55
2023-05-14T10:27:37.900Z,15.00
2023-05-14T10:30:10.219Z,5.97
2023-05-14T10:32:37.896Z,5.03
2023-05-14T10:35:17.173Z,8.40
2023-05-14T10:37:45.524Z,4.72
2023-05-14T10:40:12.966Z,4.20
2023-05-14T10:42:43.167Z,6.53
2023-05-14T10:45:12.614Z,5.80
2023-05-14T10:47:42.509Z,5.32
2023-05-14T10:50:11.403Z,5.35
2023-05-14T10:52:37.995Z,6.37
2023-05-14T10:55:10.000Z,3.90
2023-05-14T10:57:38.479Z,6.28
2023-05-14T11:00:07.708Z,4.47
2023-05-14T11:02:39.222Z,4.45
2023-05-14T11:05:13.969Z,6.50
2023-05-14T11:07:42.377Z,4.10
2023-05-14T11:10:13.161Z,6.68
2023-05-14T11:12:41.923Z,4.15
2023-05-14T11:15:10.419Z,8.30
2023-05-14T11:17:38.137Z,6.07
2023-05-14T11:20:06.415Z,5.53
2023-05-14T11:22:33.141Z,5.45
2023-05-14T11:24:59.531Z,8.32
2023-05-14T11:27:26.535Z,5.70
2023-05-14T11:29:53.104Z,5.43
2023-05-14T11:32:20.229Z,6.28
2023-05-14T11:34:47.018Z,4.25
2023-05-14T11:37:15.659Z,5.47
2023-05-14T11:39:55.416Z,5.47
2023-05-14T11:42:22.456Z,4.60
2023-05-14T11:44:51.491Z,6.05
2023-05-14T11:47:19.774Z,8.20
2023-05-14T11:49:46.809Z,4.68
2023-05-14T11:52:15.039Z,5.13
2023-05-14T11:54:43.450Z,7.03
2023-05-14T11:57:16.405Z,9.38
2023-05-14T11:59:43.233Z,8.60
2023-05-14T12:02:14.528Z,6.70
2023-05-14T12:04:42.760Z,6.45
2023-05-14T12:07:14.650Z,5.93
2023-05-14T12:09:49.146Z,4.72
2023-05-14T12:12:24.740Z,7.75
2023-05-14T12:14:52.587Z,8.13
2023-05-14T12:17:21.183Z,8.07
2023-05-14T12:19:49.749Z,4.63
2023-05-14T12:22:22.087Z,4.82
2023-05-14T12:24:56.943Z,6.75
2023-05-14T12:27:26.204Z,9.25
2023-05-14T12:30:34.029Z,6.85
2023-05-14T12:33:00.538Z,5.87
2023-05-14T12:35:27.217Z,4.72
2023-05-14T12:37:53.818Z,4.35
2023-05-14T12:40:20.252Z,7.18
2023-05-14T12:42:46.572Z,3.85
2023-05-14T12:45:12.953Z,4.97
2023-05-14T12:47:39.341Z,6.50
2023-05-14T12:50:06.494Z,6.00
2023-05-14T12:52:38.693Z,3.67
2023-05-14T12:55:07.218Z,5.00
2023-05-14T12:57:35.290Z,3.13
2023-05-14T13:00:06.593Z,4.47
2023-05-14T13:02:33.319Z,6.05
2023-05-14T13:05:09.953Z,4.55
2023-05-14T13:07:36.496Z,8.10
2023-05-14T13:10:05.481Z,5.17
2023-05-14T13:12:32.191Z,4.85
2023-05-14T13:14:58.515Z,9.93
2023-05-14T13:17:24.969Z,8.90
2023-05-14T13:19:51.375Z,5.18
2023-05-14T13:22:18.810Z,4.10
2023-05-14T13:24:45.491Z,4.32
2023-05-14T13:27:11.865Z,7.00
2023-05-14T13:29:38.241Z,15.23
2023-05-14T13:32:04.964Z,5.68
2023-05-14T13:34:31.260Z,5.07
2023-05-14T13:36:57.657Z,5.60
2023-05-14T13:39:26.892Z,7.80
2023-05-14T13:41:56.604Z,3.83
2023-05-14T13:44:23.058Z,8.68
2023-05-14T13:46:49.689Z,7.70
2023-05-14T13:49:16.200Z,6.45
2023-05-14T13:51:42.599Z,6.75
2023-05-14T13:54:08.963Z,7.50
2023-05-14T13:56:35.424Z,5.35
2023-05-14T13:59:01.963Z,7.00
2023-05-14T14:01:30.590Z,3.38
2023-05-14T14:03:57.163Z,4.55
2023-05-14T14:06:23.613Z,4.82
2023-05-14T14:08:50.000Z,4.05
2023-05-14T14:11:17.518Z,8.00
2023-05-14T14:13:46.367Z,4.93
2023-05-14T14:16:13.226Z,9.90
2023-05-14T14:18:39.729Z,4.85
2023-05-14T14:21:06.310Z,6.15
2023-05-14T14:23:32.714Z,5.50
2023-05-14T14:25:59.164Z,6.22
2023-05-14T14:28:25.684Z,6.07
2023-05-14T14:30:52.112Z,7.10
2023-05-14T14:33:18.479Z,5.03
2023-05-14T14:35:44.873Z,6.13
2023-05-14T14:38:11.261Z,3.28
2023-05-14T14:40:37.774Z,3.22
2023-05-14T14:43:04.183Z,5.38
2023-05-14T14:45:30.749Z,3.80
2023-05-14T14:48:21.941Z,5.03
2023-05-14T14:50:48.480Z,5.20
2023-05-14T14:53:14.835Z,4.85
2023-05-14T14:55:41.290Z,3.63
2023-05-14T14:58:07.630Z,4.07
2023-05-14T15:00:34.056Z,4.80
2023-05-14T15:03:00.528Z,2.83
2023-05-14T15:05:26.949Z,8.02
2023-05-14T15:07:53.358Z,9.13
2023-05-14T15:10:19.869Z,3.40
2023-05-14T15:12:46.318Z,3.10
2023-05-14T15:15:12.693Z,6.15
2023-05-14T15:17:39.127Z,3.38
2023-05-14T15:20:07.253Z,6.75
2023-05-14T15:22:33.596Z,6.38
2023-05-14T15:24:59.978Z,4.63
2023-05-14T15:27:26.294Z,3.80
2023-05-14T15:29:52.619Z,4.32
2023-05-14T15:32:19.045Z,5.47
2023-05-14T15:34:45.376Z,4.25
2023-05-14T15:37:11.730Z,7.77
2023-05-14T15:39:38.138Z,4.25
2023-05-14T15:42:04.819Z,7.38
2023-05-14T15:44:31.310Z,3.47
2023-05-14T15:46:57.719Z,6.45
2023-05-14T15:49:24.230Z,6.73
2023-05-14T15:51:50.712Z,3.95
2023-05-14T15:54:17.094Z,4.35
2023-05-14T15:56:43.526Z,3.13
2023-05-14T15:59:09.880Z,5.05
2023-05-14T16:01:36.239Z,4.83
2023-05-14T16:04:02.708Z,4.05
2023-05-14T16:06:29.280Z,5.78
2023-05-14T16:08:56.183Z,6.57
2023-05-14T16:11:22.518Z,3.70
2023-05-14T16:13:48.959Z,2.73
2023-05-14T16:16:15.333Z,5.68
2023-05-14T16:18:43.122Z,7.47
2023-05-14T16:21:09.516Z,9.57
2023-05-14T16:23:35.837Z,6.40
2023-05-14T16:26:02.316Z,6.23
2023-05-14T16:28:28.749Z,5.63
2023-05-14T16:30:55.124Z,5.88
2023-05-14T16:33:21.541Z,4.13
2023-05-14T16:35:49.904Z,4.05
2023-05-14T16:38:16.275Z,6.33
2023-05-14T16:40:42.785Z,10.40
2023-05-14T16:43:09.168Z,8.38
2023-05-14T16:45:37.189Z,5.50
2023-05-14T16:48:04.437Z,6.25
2023-05-14T16:50:30.829Z,5.23
2023-05-14T16:52:57.242Z,4.72
2023-05-14T16:55:23.976Z,4.80
2023-05-14T16:57:50.672Z,7.35
2023-05-14T17:00:17.802Z,7.97
2023-05-14T17:02:44.201Z,9.43
2023-05-14T17:05:10.581Z,6.45
2023-05-14T17:07:38.167Z,4.28
2023-05-14T17:10:05.692Z,8.05
2023-05-14T17:12:32.089Z,3.40
2023-05-14T17:14:58.396Z,6.47
2023-05-14T17:17:24.772Z,6.35
2023-05-14T17:19:51.080Z,5.20
2023-05-14T17:22:17.472Z,3.70
2023-05-14T17:24:43.793Z,6.80
2023-05-14T17:27:10.176Z,5.43
2023-05-14T17:29:36.562Z,9.88
2023-05-14T17:32:03.597Z,11.95
2023-05-14T17:34:30.433Z,11.38
2023-05-14T17:36:56.790Z,6.45
2023-05-14T17:39:23.141Z,4.70
2023-05-14T17:41:49.484Z,6.78
2023-05-14T17:44:15.837Z,8.07
2023-05-14T17:46:42.345Z,9.43
2023-05-14T17:49:08.735Z,7.40
2023-05-14T17:51:35.194Z,6.70
2023-05-14T17:54:01.527Z,8.50
2023-05-14T17:56:27.905Z,7.22
2023-05-14T17:58:54.290Z,6.68
2023-05-14T18:01:20.728Z,7.72
2023-05-14T18:03:47.455Z,6.37
2023-05-14T18:06:13.871Z,6.10
2023-05-14T18:08:40.879Z,7.15
2023-05-14T18:11:07.207Z,9.73
2023-05-14T18:13:33.553Z,7.57
2023-05-14T18:16:01.121Z,5.50
2023-05-14T18:18:27.587Z,11.77
2023-05-14T18:20:53.999Z,7.70
2023-05-14T18:23:20.485Z,9.05
2023-05-14T18:25:47.968Z,5.90
2023-05-14T18:28:14.401Z,9.60
2023-05-14T18:30:40.791Z,5.82
2023-05-14T18:33:07.359Z,8.95
2023-05-14T18:35:35.154Z,7.50
2023-05-14T18:38:02.741Z,5.85
2023-05-14T18:40:29.065Z,6.03
2023-05-14T18:42:56.634Z,4.63
2023-05-14T18:45:24.116Z,5.63
2023-05-14T18:47:51.441Z,4.50
2023-05-14T18:50:17.901Z,6.45
2023-05-14T18:52:44.361Z,6.23
2023-05-14T18:55:11.129Z,7.03
2023-05-14T18:57:37.640Z,3.95
2023-05-14T19:00:05.051Z,3.90
2023-05-14T19:02:31.499Z,3.47
2023-05-14T19:04:58.003Z,6.23
2023-05-14T19:07:24.457Z,5.18
2023-05-14T19:09:51.147Z,8.27
2023-05-14T19:12:17.559Z,4.47
2023-05-14T19:14:43.905Z,8.32
2023-05-14T19:17:10.863Z,11.83
2023-05-14T19:19:37.777Z,5.68
2023-05-14T19:22:04.262Z,7.47
2023-05-14T19:24:30.694Z,6.07
2023-05-14T19:26:57.094Z,8.52
2023-05-14T19:29:23.558Z,7.23
2023-05-14T19:31:49.986Z,10.02
2023-05-14T19:34:16.559Z,5.20
2023-05-14T19:36:42.876Z,6.63
2023-05-14T19:39:09.692Z,7.70
2023-05-14T19:41:36.123Z,7.60
2023-05-14T19:44:02.523Z,3.85
2023-05-14T19:46:29.053Z,8.70
2023-05-14T19:48:55.548Z,6.70
2023-05-14T19:51:21.908Z,6.88
2023-05-14T19:53:48.349Z,4.63
2023-05-14T19:56:15.286Z,8.13
2023-05-14T19:58:41.632Z,4.97
2023-05-14T20:01:08.011Z,4.80
2023-05-14T20:03:34.773Z,6.32
2023-05-14T20:06:01.932Z,4.87
2023-05-14T20:08:29.046Z,6.57
2023-05-14T20:10:55.564Z,4.78
2023-05-14T20:13:23.195Z,9.88
2023-05-14T20:15:51.591Z,6.00
2023-05-14T20:18:17.966Z,8.90
2023-05-14T20:20:44.388Z,11.30
2023-05-14T20:23:10.721Z,9.38
2023-05-14T20:25:37.067Z,9.02
2023-05-14T20:28:04.009Z,11.93
2023-05-14T20:30:30.972Z,10.30
2023-05-14T20:32:57.613Z,8.02
2023-05-14T20:35:24.121Z,7.70
2023-05-14T20:37:51.069Z,10.98
2023-05-14T20:40:17.618Z,6.60
2023-05-14T20:42:44.074Z,7.97
2023-05-14T20:45:10.979Z,7.68
2023-05-14T20:47:37.381Z,9.00
2023-05-14T20:50:04.576Z,8.02
2023-05-14T20:52:30.954Z,7.07
2023-05-14T20:54:59.342Z,7.83
2023-05-14T20:57:27.851Z,6.40
2023-05-14T20:59:54.205Z,5.93
2023-05-14T21:02:20.884Z,4.72
2023-05-14T21:04:47.501Z,7.68
2023-05-14T21:07:13.951Z,9.13
2023-05-14T21:09:40.415Z,11.63
2023-05-14T21:12:07.212Z,8.13
2023-05-14T21:14:33.658Z,9.32
2023-05-14T21:17:00.026Z,10.75
2023-05-14T21:19:26.467Z,8.30
2023-05-14T21:21:52.924Z,6.07
2023-05-14T21:24:19.356Z,8.68
2023-05-14T21:26:46.266Z,7.85
2023-05-14T21:29:12.638Z,6.85
2023-05-14T21:31:39.006Z,6.77
2023-05-14T21:34:05.719Z,9.73
2023-05-14T21:36:32.220Z,6.63
2023-05-14T21:38:58.687Z,6.13
2023-05-14T21:41:25.275Z,9.63
2023-05-14T21:43:51.644Z,9.60
2023-05-14T21:46:18.133Z,10.27
2023-05-14T21:48:44.575Z,8.55
2023-05-14T21:51:11.303Z,6.60
2023-05-14T21:53:37.625Z,7.43
2023-05-14T21:56:04.320Z,8.23
2023-05-14T21:58:30.665Z,8.32
2023-05-14T22:00:57.653Z,8.02
2023-05-14T22:03:24.065Z,10.70
2023-05-14T22:05:50.507Z,6.95
2023-05-14T22:08:17.521Z,8.83
2023-05-14T22:10:44.371Z,8.48
2023-05-14T22:13:10.999Z,6.65
2023-05-14T22:15:37.875Z,7.35
2023-05-14T22:18:04.450Z,9.75
2023-05-14T22:20:31.047Z,8.80
2023-05-14T22:22:57.472Z,8.80
2023-05-14T22:25:23.988Z,9.05
2023-05-14T22:27:50.496Z,8.13
2023-05-14T22:30:16.958Z,6.20
2023-05-14T22:32:43.636Z,8.33
2023-05-14T22:35:10.061Z,7.03
2023-05-14T22:37:36.970Z,5.85
2023-05-14T22:40:05.142Z,9.73
2023-05-14T22:42:31.551Z,5.57
2023-05-14T22:44:57.863Z,6.03
2023-05-14T22:47:25.148Z,7.18
2023-05-14T22:49:51.573Z,8.45
2023-05-14T22:52:18.886Z,8.20
2023-05-14T22:54:46.493Z,12.13
2023-05-14T22:57:12.902Z,6.50
2023-05-14T22:59:39.494Z,7.63
2023-05-14T23:02:06.570Z,12.68
2023-05-14T23:04:33.042Z,10.13
2023-05-14T23:06:59.454Z,10.52
2023-05-14T23:09:25.821Z,10.30
2023-05-14T23:11:52.143Z,10.98
2023-05-14T23:14:18.531Z,15.55
2023-05-14T23:16:44.932Z,8.32
2023-05-14T23:19:11.585Z,15.45
2023-05-14T23:21:38.115Z,8.67
2023-05-14T23:24:04.637Z,12.23
2023-05-14T23:26:31.051Z,7.82
2023-05-14T23:28:57.365Z,8.90
2023-05-14T23:31:23.713Z,9.65
2023-05-14T23:33:50.163Z,13.47
2023-05-14T23:36:16.642Z,11.02
2023-05-14T23:38:43.298Z,12.65
2023-05-14T23:41:09.641Z,13.63
2023-05-14T23:43:36.050Z,9.77
2023-05-14T23:46:02.645Z,12.67
2023-05-14T23:48:29.290Z,8.98
2023-05-14T23:50:55.629Z,13.48
2023-05-14T23:53:22.065Z,13.45
2023-05-14T23:55:48.802Z,12.95
2023-05-14T23:58:15.254Z,11.90
